createdAt,value
2022-12-19T00:01:59.141Z,42.43
2022-12-19T00:04:27.228Z,42.27
2022-12-19T00:06:58.158Z,39.67
2022-12-19T00:09:26.733Z,43.70
2022-12-19T00:11:54.986Z,40.47
2022-12-19T00:14:24.348Z,49.33
2022-12-19T00:16:52.326Z,40.63
2022-12-19T00:19:20.322Z,46.90
2022-12-19T00:21:48.221Z,43.43
2022-12-19T00:24:21.271Z,43.67
2022-12-19T00:26:50.902Z,44.13
2022-12-19T00:29:18.812Z,47.33
2022-12-19T00:31:48.167Z,55.43
2022-12-19T00:34:16.289Z,44.00
2022-12-19T00:36:44.338Z,47.93
2022-12-19T00:39:12.932Z,47.30
2022-12-19T00:41:42.523Z,44.60
2022-12-19T00:44:12.814Z,41.93
2022-12-19T00:46:42.211Z,41.57
2022-12-19T00:49:11.893Z,44.20
2022-12-19T00:51:39.791Z,46.23
2022-12-19T00:54:11.044Z,44.03
2022-12-19T00:56:39.898Z,45.43
2022-12-19T00:59:08.911Z,41.90
2022-12-19T01:01:38.741Z,43.73
2022-12-19T01:07:02.117Z,40.40
2022-12-19T01:09:34.959Z,36.13
2022-12-19T01:12:24.681Z,45.67
2022-12-19T01:14:56.389Z,41.53
2022-12-19T01:17:43.492Z,35.70
2022-12-19T01:20:17.564Z,35.50
2022-12-19T01:22:50.643Z,39.97
2022-12-19T01:25:18.704Z,42.80
2022-12-19T01:27:46.563Z,37.20
2022-12-19T01:30:14.670Z,34.20
2022-12-19T01:32:43.246Z,34.67
2022-12-19T01:35:21.166Z,35.40
2022-12-19T01:37:55.893Z,37.47
2022-12-19T01:40:36.545Z,37.10
2022-12-19T01:43:04.780Z,38.87
2022-12-19T01:45:36.029Z,33.10
2022-12-19T01:48:14.894Z,34.80
2022-12-19T01:50:56.253Z,33.20
2022-12-19T01:53:48.989Z,36.67
2022-12-19T01:56:20.627Z,34.83
2022-12-19T01:58:51.043Z,34.07
2022-12-19T02:01:29.104Z,36.40
2022-12-19T02:03:59.731Z,33.40
2022-12-19T02:06:28.696Z,35.07
2022-12-19T02:08:58.357Z,38.80
2022-12-19T02:11:26.369Z,30.60
2022-12-19T02:13:54.474Z,36.83
2022-12-19T02:16:33.233Z,29.50
2022-12-19T02:19:15.240Z,37.07
2022-12-19T02:21:56.709Z,32.87
2022-12-19T02:24:55.447Z,37.20
2022-12-19T02:27:43.170Z,35.70
2022-12-19T02:30:15.158Z,35.17
2022-12-19T02:33:03.164Z,36.43
2022-12-19T02:35:42.316Z,34.90
2022-12-19T02:38:17.080Z,34.37
2022-12-19T02:40:51.830Z,34.17
2022-12-19T02:43:25.616Z,32.47
2022-12-19T02:45:54.815Z,32.33
2022-12-19T02:48:25.333Z,33.03
2022-12-19T02:50:53.340Z,37.30
2022-12-19T02:53:23.779Z,34.33
2022-12-19T02:56:13.875Z,44.03
2022-12-19T02:59:00.868Z,34.97
2022-12-19T03:01:41.066Z,36.97
2022-12-19T03:04:18.697Z,32.93
2022-12-19T03:06:53.343Z,37.83
2022-12-19T03:09:30.443Z,33.30
2022-12-19T03:12:04.376Z,37.37
2022-12-19T03:14:33.214Z,41.53
2022-12-19T03:17:05.622Z,36.93
2022-12-19T03:19:37.016Z,40.80
2022-12-19T03:22:04.927Z,35.33
2022-12-19T03:24:33.004Z,33.97
2022-12-19T03:27:04.244Z,35.67
2022-12-19T03:29:35.247Z,34.70
2022-12-19T03:32:06.530Z,33.57
2022-12-19T03:34:39.256Z,30.33
2022-12-19T03:37:10.550Z,32.23
2022-12-19T03:39:42.082Z,33.40
2022-12-19T03:42:29.250Z,29.23
2022-12-19T03:45:02.529Z,31.30
2022-12-19T03:47:35.871Z,35.37
2022-12-19T03:50:06.417Z,31.50
2022-12-19T03:52:42.698Z,36.03
2022-12-19T03:55:17.499Z,32.73
2022-12-19T03:57:52.469Z,34.10
2022-12-19T04:00:21.528Z,31.17
2022-12-19T04:02:52.353Z,32.50
2022-12-19T04:05:24.233Z,35.60
2022-12-19T04:07:55.140Z,30.47
2022-12-19T04:10:25.965Z,33.37
2022-12-19T04:12:58.055Z,29.87
2022-12-19T04:15:36.011Z,33.00
2022-12-19T04:18:08.817Z,34.90
2022-12-19T04:20:42.179Z,34.10
2022-12-19T04:23:15.964Z,30.80
2022-12-19T04:25:48.384Z,29.27
2022-12-19T04:28:21.926Z,33.33
2022-12-19T04:30:50.774Z,33.03
2022-12-19T04:33:18.662Z,30.40
2022-12-19T04:35:47.963Z,27.93
2022-12-19T04:38:15.949Z,37.17
2022-12-19T04:40:43.885Z,35.30
2022-12-19T04:43:11.729Z,35.17
2022-12-19T04:45:42.026Z,30.37
2022-12-19T04:48:10.351Z,31.30
2022-12-19T04:50:38.378Z,35.83
2022-12-19T04:53:08.228Z,32.43
2022-12-19T04:55:36.218Z,27.60
2022-12-19T04:58:05.726Z,31.20
2022-12-19T05:00:33.721Z,36.37
2022-12-19T05:03:01.714Z,35.67
2022-12-19T05:05:29.961Z,33.57
2022-12-19T05:07:57.962Z,35.40
2022-12-19T05:10:27.136Z,38.73
2022-12-19T05:12:55.693Z,29.03
2022-12-19T05:15:23.736Z,38.03
2022-12-19T05:17:51.550Z,30.20
2022-12-19T05:20:19.623Z,31.73
2022-12-19T05:22:47.971Z,35.73
2022-12-19T05:25:16.436Z,33.83
2022-12-19T05:27:45.615Z,32.80
2022-12-19T05:30:14.119Z,37.40
2022-12-19T05:32:41.933Z,37.10
2022-12-19T05:35:09.974Z,36.63
2022-12-19T05:37:37.803Z,47.77
2022-12-19T05:40:06.480Z,49.97
2022-12-19T05:42:34.428Z,48.20
2022-12-19T05:45:03.577Z,46.83
2022-12-19T05:47:32.188Z,44.93
2022-12-19T05:49:59.986Z,44.37
2022-12-19T05:52:27.785Z,38.47
2022-12-19T05:54:55.797Z,35.50
2022-12-19T05:57:23.688Z,32.70
2022-12-19T05:59:51.609Z,36.40
2022-12-19T06:02:21.426Z,32.40
2022-12-19T06:04:49.357Z,33.23
2022-12-19T06:07:20.894Z,26.37
2022-12-19T06:09:49.012Z,27.53
2022-12-19T06:12:16.803Z,28.33
2022-12-19T06:14:44.669Z,26.53
2022-12-19T06:17:12.540Z,28.23
2022-12-19T06:19:41.751Z,28.57
2022-12-19T06:22:09.572Z,29.37
2022-12-19T06:24:37.507Z,28.80
2022-12-19T06:27:05.333Z,26.33
2022-12-19T06:29:33.685Z,23.90
2022-12-19T06:32:01.510Z,32.40
2022-12-19T06:35:02.381Z,24.17
2022-12-19T06:37:18.548Z,28.40
2022-12-19T06:39:48.407Z,24.10
2022-12-19T06:42:24.541Z,31.23
2022-12-19T06:44:56.491Z,22.77
2022-12-19T06:47:25.166Z,30.47
2022-12-19T06:49:52.964Z,29.23
2022-12-19T06:52:22.303Z,28.50
2022-12-19T06:54:50.157Z,23.57
2022-12-19T06:57:17.917Z,25.40
2022-12-19T06:59:45.764Z,25.27
2022-12-19T07:02:25.196Z,24.43
2022-12-19T07:04:58.222Z,25.83
2022-12-19T07:07:28.504Z,26.03
2022-12-19T07:09:56.365Z,24.20
2022-12-19T07:12:24.160Z,30.17
2022-12-19T07:14:53.697Z,26.93
2022-12-19T07:17:23.623Z,28.60
2022-12-19T07:19:51.612Z,21.53
2022-12-19T07:22:19.696Z,26.60
2022-12-19T07:24:49.271Z,31.13
2022-12-19T07:27:17.223Z,25.87
2022-12-19T07:29:45.001Z,23.10
2022-12-19T07:32:12.761Z,26.30
2022-12-19T07:34:40.747Z,26.27
2022-12-19T07:37:08.526Z,23.90
2022-12-19T07:39:36.410Z,24.80
2022-12-19T07:42:05.712Z,28.30
2022-12-19T07:44:39.780Z,25.50
2022-12-19T07:47:07.878Z,29.00
2022-12-19T07:49:35.716Z,23.97
2022-12-19T07:52:04.014Z,22.07
2022-12-19T07:54:31.829Z,24.90
2022-12-19T07:56:59.585Z,26.40
2022-12-19T07:59:32.282Z,24.07
2022-12-19T08:02:03.757Z,21.27
2022-12-19T08:04:31.705Z,22.47
2022-12-19T08:06:59.555Z,20.40
2022-12-19T08:09:27.832Z,22.47
2022-12-19T08:11:55.819Z,22.60
2022-12-19T08:14:23.634Z,24.57
2022-12-19T08:19:40.820Z,26.37
2022-12-19T08:22:08.673Z,20.97
2022-12-19T08:24:36.752Z,24.80
2022-12-19T08:27:04.757Z,27.07
2022-12-19T08:29:32.596Z,21.33
2022-12-19T08:32:01.745Z,22.27
2022-12-19T08:34:29.611Z,22.40
2022-12-19T08:36:57.787Z,22.80
2022-12-19T08:39:25.785Z,24.53
2022-12-19T08:41:53.577Z,22.37
2022-12-19T08:44:21.579Z,20.07
2022-12-19T08:46:50.452Z,24.57
2022-12-19T08:49:20.500Z,23.17
2022-12-19T08:51:48.433Z,23.90
2022-12-19T08:54:16.587Z,24.47
2022-12-19T08:56:46.509Z,24.07
2022-12-19T08:59:18.539Z,16.33
2022-12-19T09:01:58.848Z,25.47
2022-12-19T09:05:31.347Z,22.10
2022-12-19T09:07:16.534Z,28.40
2022-12-19T09:09:44.804Z,26.30
2022-12-19T09:12:13.610Z,24.10
2022-12-19T09:14:41.413Z,22.70
2022-12-19T09:17:09.644Z,19.90
2022-12-19T09:19:39.097Z,21.07
2022-12-19T09:22:09.085Z,23.10
2022-12-19T09:24:36.950Z,25.10
2022-12-19T09:27:05.005Z,24.67
2022-12-19T09:29:35.536Z,25.47
2022-12-19T09:32:03.711Z,22.77
2022-12-19T09:34:38.177Z,29.03
2022-12-19T09:37:09.153Z,26.50
2022-12-19T09:39:43.255Z,24.80
2022-12-19T09:42:41.245Z,25.30
2022-12-19T09:45:33.076Z,26.77
2022-12-19T09:48:02.286Z,24.07
2022-12-19T09:50:49.036Z,20.70
2022-12-19T09:53:22.322Z,22.40
2022-12-19T09:55:54.092Z,25.07
2022-12-19T09:58:36.729Z,25.80
2022-12-19T10:01:09.302Z,22.93
2022-12-19T10:03:40.772Z,27.67
2022-12-19T10:07:10.430Z,22.33
2022-12-19T10:10:09.791Z,28.37
2022-12-19T10:12:42.764Z,25.10
2022-12-19T10:15:19.689Z,30.57
2022-12-19T10:18:05.487Z,24.10
2022-12-19T10:20:36.383Z,25.97
2022-12-19T10:23:17.925Z,30.50
2022-12-19T10:25:58.764Z,24.27
2022-12-19T10:28:47.718Z,24.37
2022-12-19T10:31:22.364Z,25.03
2022-12-19T10:33:58.453Z,25.83
2022-12-19T10:36:48.735Z,26.80
2022-12-19T10:39:25.056Z,24.97
2022-12-19T10:41:57.922Z,27.23
2022-12-19T10:44:30.067Z,23.53
2022-12-19T10:46:57.989Z,28.97
2022-12-19T10:49:28.052Z,26.77
2022-12-19T10:52:01.172Z,24.10
2022-12-19T10:54:39.470Z,27.93
2022-12-19T10:57:25.682Z,27.33
2022-12-19T10:59:58.519Z,28.57
2022-12-19T11:02:41.088Z,25.03
2022-12-19T11:05:24.330Z,27.27
2022-12-19T11:08:03.618Z,28.03
2022-12-19T11:12:09.373Z,27.07
2022-12-19T11:18:45.329Z,28.57
2022-12-19T11:20:53.063Z,25.33
2022-12-19T11:29:30.011Z,31.53
2022-12-19T11:29:35.108Z,28.67
2022-12-19T11:30:08.858Z,25.80
2022-12-19T11:30:43.543Z,31.03
2022-12-19T11:32:12.176Z,33.57
2022-12-19T11:33:56.251Z,27.17
2022-12-19T11:36:32.473Z,30.83
2022-12-19T11:39:00.913Z,29.33
2022-12-19T11:41:34.755Z,33.10
2022-12-19T11:44:08.499Z,29.30
2022-12-19T11:46:44.589Z,26.60
2022-12-19T11:49:23.660Z,28.50
2022-12-19T11:51:57.442Z,28.83
2022-12-19T11:54:30.813Z,28.30
2022-12-19T11:56:58.740Z,27.30
2022-12-19T11:59:32.366Z,28.10
2022-12-19T12:02:14.019Z,35.00
2022-12-19T12:04:55.852Z,25.93
2022-12-19T12:08:16.226Z,23.53
2022-12-19T12:16:23.526Z,27.97
2022-12-19T12:22:53.838Z,26.77
2022-12-19T12:24:46.819Z,22.10
2022-12-19T12:31:21.496Z,23.47
2022-12-19T12:31:23.790Z,24.90
2022-12-19T12:31:46.051Z,22.83
2022-12-19T12:31:47.726Z,22.03
2022-12-19T12:35:36.472Z,25.90
2022-12-19T12:35:46.392Z,27.83
2022-12-19T12:40:46.663Z,23.83
2022-12-19T12:43:32.243Z,25.20
2022-12-19T12:46:00.383Z,23.47
2022-12-19T12:48:34.153Z,23.17
2022-12-19T12:51:04.446Z,23.13
2022-12-19T12:53:36.228Z,24.97
2022-12-19T12:56:07.485Z,25.67
2022-12-19T12:59:04.613Z,24.93
2022-12-19T13:01:38.779Z,27.30
2022-12-19T13:04:19.141Z,27.70
2022-12-19T13:09:41.850Z,27.70
2022-12-19T13:12:38.725Z,23.23
2022-12-19T13:15:34.305Z,26.43
2022-12-19T13:18:10.672Z,22.90
2022-12-19T13:20:45.517Z,23.93
2022-12-19T13:23:33.404Z,23.33
2022-12-19T13:26:02.621Z,26.43
2022-12-19T13:28:39.651Z,24.73
2022-12-19T13:31:23.136Z,24.47
2022-12-19T13:34:20.160Z,25.30
2022-12-19T13:39:49.256Z,28.97
2022-12-19T13:39:58.420Z,21.00
2022-12-19T13:43:08.214Z,25.13
2022-12-19T13:45:42.252Z,22.57
2022-12-19T13:48:16.564Z,24.43
2022-12-19T13:50:47.661Z,22.77
2022-12-19T13:53:18.301Z,23.47
2022-12-19T13:55:46.183Z,24.87
2022-12-19T13:58:29.258Z,20.37
2022-12-19T14:01:01.904Z,24.90
2022-12-19T14:03:36.089Z,27.90
2022-12-19T14:06:16.058Z,21.90
2022-12-19T14:09:20.259Z,26.43
2022-12-19T14:13:46.248Z,23.90
2022-12-19T14:15:12.822Z,23.00
2022-12-19T14:17:41.832Z,23.13
2022-12-19T14:22:01.774Z,21.70
2022-12-19T14:23:07.592Z,25.33
2022-12-19T14:28:15.654Z,22.30
2022-12-19T14:28:50.688Z,22.00
2022-12-19T14:31:26.382Z,21.63
2022-12-19T14:34:19.104Z,29.00
2022-12-19T14:36:50.635Z,23.70
2022-12-19T14:39:28.863Z,25.83
2022-12-19T14:43:55.438Z,20.20
2022-12-19T14:52:25.320Z,23.40
2022-12-19T14:52:34.299Z,25.60
2022-12-19T14:54:31.358Z,22.43
2022-12-19T14:57:25.487Z,24.10
2022-12-19T15:01:08.212Z,21.83
2022-12-19T15:03:19.781Z,25.67
2022-12-19T15:05:49.482Z,22.93
2022-12-19T15:09:50.759Z,25.03
2022-12-19T15:11:53.680Z,18.63
2022-12-19T15:14:51.285Z,19.80
2022-12-19T15:17:24.367Z,24.97
2022-12-19T15:19:52.794Z,19.70
2022-12-19T15:22:21.982Z,18.87
2022-12-19T15:24:49.787Z,22.03
2022-12-19T15:27:18.534Z,20.47
2022-12-19T15:29:46.606Z,25.03
2022-12-19T15:32:15.901Z,24.40
2022-12-19T15:34:51.015Z,20.27
2022-12-19T15:37:19.838Z,18.70
2022-12-19T15:39:49.218Z,21.00
2022-12-19T15:42:21.509Z,28.53
2022-12-19T15:44:51.142Z,26.00
2022-12-19T15:47:23.110Z,24.97
2022-12-19T15:49:51.057Z,25.50
2022-12-19T15:52:21.649Z,20.07
2022-12-19T15:54:51.375Z,21.30
2022-12-19T15:57:27.203Z,23.67
2022-12-19T15:59:56.616Z,23.13
2022-12-19T16:02:37.524Z,25.00
2022-12-19T16:05:15.538Z,20.23
2022-12-19T16:07:43.783Z,20.27
2022-12-19T16:10:13.492Z,23.57
2022-12-19T16:12:43.969Z,23.37
2022-12-19T16:15:17.379Z,21.10
2022-12-19T16:17:45.245Z,28.20
2022-12-19T16:20:18.768Z,29.27
2022-12-19T16:22:46.938Z,32.20
2022-12-19T16:25:17.255Z,29.87
2022-12-19T16:27:47.686Z,31.23
2022-12-19T16:30:19.537Z,26.40
2022-12-19T16:32:48.259Z,29.40
2022-12-19T16:35:34.299Z,31.80
2022-12-19T16:38:06.400Z,27.60
2022-12-19T16:40:36.052Z,26.93
2022-12-19T16:43:06.690Z,27.70
2022-12-19T16:45:35.876Z,29.40
2022-12-19T16:48:03.871Z,33.97
2022-12-19T16:50:32.836Z,31.07
2022-12-19T16:53:00.591Z,41.33
2022-12-19T16:55:28.585Z,36.10
2022-12-19T16:57:59.018Z,33.20
2022-12-19T17:00:27.573Z,31.87
2022-12-19T17:02:58.067Z,28.67
2022-12-19T17:05:28.109Z,34.47
2022-12-19T17:07:56.762Z,32.27
2022-12-19T17:10:29.791Z,34.50
2022-12-19T17:13:00.248Z,35.43
2022-12-19T17:15:31.264Z,31.33
2022-12-19T17:18:01.752Z,32.33
2022-12-19T17:20:39.538Z,36.13
2022-12-19T17:23:14.364Z,26.20
2022-12-19T17:25:42.391Z,32.03
2022-12-19T17:28:12.598Z,28.80
2022-12-19T17:30:41.922Z,31.63
2022-12-19T17:33:15.527Z,29.30
2022-12-19T17:35:43.851Z,26.07
2022-12-19T17:38:14.309Z,25.23
2022-12-19T17:40:42.822Z,28.67
2022-12-19T17:43:13.200Z,25.93
2022-12-19T17:45:42.365Z,33.90
2022-12-19T17:48:21.957Z,30.17
2022-12-19T17:50:49.858Z,31.97
2022-12-19T17:53:17.652Z,29.10
2022-12-19T17:55:45.515Z,25.10
2022-12-19T17:58:14.651Z,33.20
2022-12-19T18:00:43.577Z,32.23
2022-12-19T18:03:21.236Z,27.50
2022-12-19T18:05:50.670Z,24.60
2022-12-19T18:08:25.414Z,21.87
2022-12-19T18:10:56.482Z,24.90
2022-12-19T18:13:27.287Z,21.33
2022-12-19T18:15:58.272Z,26.77
2022-12-19T18:18:29.732Z,21.97
2022-12-19T18:20:58.299Z,22.33
2022-12-19T18:23:26.202Z,19.43
2022-12-19T18:25:59.467Z,24.10
2022-12-19T18:28:30.865Z,25.83
2022-12-19T18:31:01.994Z,24.60
2022-12-19T18:33:37.888Z,29.30
2022-12-19T18:36:07.570Z,21.17
2022-12-19T18:38:35.448Z,22.40
2022-12-19T18:41:03.676Z,22.20
2022-12-19T18:43:33.630Z,22.60
2022-12-19T18:46:01.558Z,20.63
2022-12-19T18:48:32.923Z,22.10
2022-12-19T18:51:01.877Z,25.57
2022-12-19T18:53:35.259Z,26.77
2022-12-19T18:56:05.979Z,25.10
2022-12-19T18:58:35.560Z,20.07
2022-12-19T19:01:04.748Z,23.90
2022-12-19T19:03:34.707Z,28.93
2022-12-19T19:06:03.665Z,26.07
2022-12-19T19:08:34.184Z,27.00
2022-12-19T19:11:31.920Z,25.30
2022-12-19T19:14:01.182Z,23.00
2022-12-19T19:16:29.087Z,23.47
2022-12-19T19:18:59.544Z,25.87
2022-12-19T19:21:33.361Z,26.43
2022-12-19T19:24:05.866Z,22.87
2022-12-19T19:26:33.963Z,27.13
2022-12-19T19:29:03.882Z,23.07
2022-12-19T19:31:35.233Z,25.30
2022-12-19T19:34:09.888Z,21.70
2022-12-19T19:36:41.322Z,22.73
2022-12-19T19:39:10.673Z,24.53
2022-12-19T19:41:38.609Z,23.50
2022-12-19T19:44:07.758Z,22.70
2022-12-19T19:46:37.007Z,22.53
2022-12-19T19:49:05.035Z,25.67
2022-12-19T19:51:32.893Z,22.60
2022-12-19T19:54:00.883Z,20.60
2022-12-19T19:56:28.871Z,23.73
2022-12-19T19:59:00.269Z,22.73
2022-12-19T20:01:30.311Z,26.20
2022-12-19T20:03:58.493Z,23.93
2022-12-19T20:06:30.036Z,24.10
2022-12-19T20:08:57.938Z,24.83
2022-12-19T20:11:25.956Z,24.00
2022-12-19T20:13:53.821Z,27.20
2022-12-19T20:16:21.751Z,24.67
2022-12-19T20:18:53.109Z,27.23
2022-12-19T20:21:22.409Z,32.50
2022-12-19T20:23:50.327Z,26.80
2022-12-19T20:26:18.913Z,26.60
2022-12-19T20:28:50.102Z,26.87
2022-12-19T20:31:19.427Z,27.43
2022-12-19T20:33:48.591Z,21.83
2022-12-19T20:36:18.516Z,22.00
2022-12-19T20:38:47.541Z,21.27
2022-12-19T20:41:15.728Z,27.73
2022-12-19T20:43:43.631Z,30.47
2022-12-19T20:46:14.046Z,30.43
2022-12-19T20:48:42.360Z,25.33
2022-12-19T20:51:10.938Z,27.33
2022-12-19T20:53:41.637Z,23.47
2022-12-19T20:56:12.085Z,34.33
2022-12-19T20:58:40.037Z,24.50
2022-12-19T21:01:10.266Z,27.70
2022-12-19T21:03:38.966Z,30.77
2022-12-19T21:06:08.235Z,27.60
2022-12-19T21:08:36.909Z,25.63
2022-12-19T21:11:07.730Z,30.63
2022-12-19T21:13:35.999Z,27.63
2022-12-19T21:16:08.518Z,25.00
2022-12-19T21:18:36.902Z,26.60
2022-12-19T21:21:05.143Z,29.33
2022-12-19T21:23:33.406Z,27.23
2022-12-19T21:26:04.180Z,27.07
2022-12-19T21:28:33.856Z,24.40
2022-12-19T21:31:04.588Z,28.33
2022-12-19T21:33:32.603Z,29.53
2022-12-19T21:36:06.589Z,27.37
2022-12-19T21:38:34.535Z,25.13
2022-12-19T21:41:03.817Z,31.80
2022-12-19T21:43:33.517Z,29.57
2022-12-19T21:46:09.993Z,26.33
2022-12-19T21:48:39.406Z,29.67
2022-12-19T21:51:07.564Z,52.20
2022-12-19T21:53:36.537Z,36.00
2022-12-19T21:56:06.330Z,34.00
2022-12-19T21:58:35.706Z,50.17
2022-12-19T22:01:12.685Z,44.37
2022-12-19T22:03:41.441Z,43.13
2022-12-19T22:06:14.495Z,36.40
2022-12-19T22:08:42.563Z,31.80
2022-12-19T22:11:14.230Z,34.40
2022-12-19T22:13:43.422Z,24.97
2022-12-19T22:16:12.431Z,27.00
2022-12-19T22:18:40.944Z,29.97
2022-12-19T22:21:10.029Z,33.13
2022-12-19T22:23:38.283Z,33.57
2022-12-19T22:26:08.182Z,29.33
2022-12-19T22:28:38.397Z,31.80
2022-12-19T22:31:17.056Z,31.07
2022-12-19T22:33:45.786Z,33.63
2022-12-19T22:36:15.625Z,28.57
2022-12-19T22:38:46.448Z,31.97
2022-12-19T22:41:15.749Z,30.10
2022-12-19T22:43:43.882Z,27.77
2022-12-19T22:46:14.458Z,27.73
2022-12-19T22:48:43.145Z,34.17
2022-12-19T22:51:11.428Z,28.03
2022-12-19T22:53:40.121Z,34.83
2022-12-19T22:56:11.564Z,27.57
2022-12-19T22:58:42.037Z,25.83
2022-12-19T23:01:16.449Z,24.80
2022-12-19T23:03:45.017Z,29.90
2022-12-19T23:06:13.366Z,32.07
2022-12-19T23:08:41.571Z,28.50
2022-12-19T23:11:17.033Z,29.17
2022-12-19T23:13:46.239Z,30.23
2022-12-19T23:16:15.719Z,28.63
2022-12-19T23:18:44.112Z,32.97
2022-12-19T23:21:14.279Z,28.40
2022-12-19T23:23:43.538Z,30.37
2022-12-19T23:26:15.818Z,30.30
2022-12-19T23:28:44.948Z,25.53
2022-12-19T23:31:15.300Z,27.43
2022-12-19T23:33:43.165Z,28.60
2022-12-19T23:36:11.200Z,26.47
2022-12-19T23:38:39.030Z,33.23
2022-12-19T23:41:09.300Z,30.47
2022-12-19T23:43:38.125Z,30.07
2022-12-19T23:46:06.937Z,26.00
2022-12-19T23:48:36.446Z,31.07
2022-12-19T23:51:06.265Z,26.03
2022-12-19T23:53:34.504Z,27.43
2022-12-19T23:56:05.612Z,22.57
2022-12-19T23:58:34.201Z,25.57
